sensor_id;sensor_type;location;lat;lon;timestamp;temperature;humidity
4425;DHT22;2225;53.568;13.266;2023-04-06T00:00:57;6.70;92.00
4425;DHT22;2225;53.568;13.266;2023-04-06T00:03:24;6.70;92.10
4425;DHT22;2225;53.568;13.266;2023-04-06T00:05:51;6.70;92.10
4425;DHT22;2225;53.568;13.266;2023-04-06T00:08:18;6.70;92.10
4425;DHT22;2225;53.568;13.266;2023-04-06T00:10:45;6.70;92.00
4425;DHT22;2225;53.568;13.266;2023-04-06T00:13:12;6.70;92.10
4425;DHT22;2225;53.568;13.266;2023-04-06T00:15:39;6.70;92.10
4425;DHT22;2225;53.568;13.266;2023-04-06T00:18:05;6.60;92.00
4425;DHT22;2225;53.568;13.266;2023-04-06T00:20:32;6.70;92.10
4425;DHT22;2225;53.568;13.266;2023-04-06T00:22:59;6.60;91.90
4425;DHT22;2225;53.568;13.266;2023-04-06T00:25:27;6.60;91.80
4425;DHT22;2225;53.568;13.266;2023-04-06T00:27:53;6.60;91.80
4425;DHT22;2225;53.568;13.266;2023-04-06T00:30:21;6.60;91.80
4425;DHT22;2225;53.568;13.266;2023-04-06T00:32:48;6.60;91.80
4425;DHT22;2225;53.568;13.266;2023-04-06T00:35:15;6.60;91.80
4425;DHT22;2225;53.568;13.266;2023-04-06T00:37:42;6.50;91.80
4425;DHT22;2225;53.568;13.266;2023-04-06T00:40:09;6.50;91.90
4425;DHT22;2225;53.568;13.266;2023-04-06T00:42:36;6.50;91.90
4425;DHT22;2225;53.568;13.266;2023-04-06T00:45:04;6.40;92.00
4425;DHT22;2225;53.568;13.266;2023-04-06T00:47:31;6.40;92.00
4425;DHT22;2225;53.568;13.266;2023-04-06T00:49:58;6.40;92.40
4425;DHT22;2225;53.568;13.266;2023-04-06T00:52:25;6.40;92.50
4425;DHT22;2225;53.568;13.266;2023-04-06T00:54:53;6.30;92.40
4425;DHT22;2225;53.568;13.266;2023-04-06T00:57:21;6.30;92.60
4425;DHT22;2225;53.568;13.266;2023-04-06T00:59:53;6.30;92.60
4425;DHT22;2225;53.568;13.266;2023-04-06T01:02:21;6.30;92.50
4425;DHT22;2225;53.568;13.266;2023-04-06T01:04:52;6.20;92.40
4425;DHT22;2225;53.568;13.266;2023-04-06T01:07:29;6.20;92.40
4425;DHT22;2225;53.568;13.266;2023-04-06T01:10:08;6.20;92.30
4425;DHT22;2225;53.568;13.266;2023-04-06T01:12:36;6.20;92.40
4425;DHT22;2225;53.568;13.266;2023-04-06T01:15:11;6.10;92.50
4425;DHT22;2225;53.568;13.266;2023-04-06T01:17:41;6.10;92.60
4425;DHT22;2225;53.568;13.266;2023-04-06T01:20:13;6.10;92.60
4425;DHT22;2225;53.568;13.266;2023-04-06T01:22:40;6.00;92.60
4425;DHT22;2225;53.568;13.266;2023-04-06T01:25:08;6.00;92.80
4425;DHT22;2225;53.568;13.266;2023-04-06T01:27:45;5.90;92.90
4425;DHT22;2225;53.568;13.266;2023-04-06T01:30:12;5.90;92.90
4425;DHT22;2225;53.568;13.266;2023-04-06T01:33:01;5.90;93.00
4425;DHT22;2225;53.568;13.266;2023-04-06T01:35:46;5.90;92.90
4425;DHT22;2225;53.568;13.266;2023-04-06T01:38:16;5.80;92.80
4425;DHT22;2225;53.568;13.266;2023-04-06T01:40:44;5.80;92.80
4425;DHT22;2225;53.568;13.266;2023-04-06T01:43:11;5.70;92.70
4425;DHT22;2225;53.568;13.266;2023-04-06T01:45:54;5.70;92.70
4425;DHT22;2225;53.568;13.266;2023-04-06T01:48:24;5.70;92.60
4425;DHT22;2225;53.568;13.266;2023-04-06T01:50:51;5.70;92.50
4425;DHT22;2225;53.568;13.266;2023-04-06T01:53:23;5.70;92.50
4425;DHT22;2225;53.568;13.266;2023-04-06T01:55:52;5.60;92.50
4425;DHT22;2225;53.568;13.266;2023-04-06T01:58:32;5.60;92.40
4425;DHT22;2225;53.568;13.266;2023-04-06T02:01:00;5.60;92.40
4425;DHT22;2225;53.568;13.266;2023-04-06T02:03:34;5.60;92.70
4425;DHT22;2225;53.568;13.266;2023-04-06T02:06:06;5.50;92.70
4425;DHT22;2225;53.568;13.266;2023-04-06T02:08:39;5.50;92.60
4425;DHT22;2225;53.568;13.266;2023-04-06T02:11:06;5.50;92.60
4425;DHT22;2225;53.568;13.266;2023-04-06T02:13:39;5.50;92.50
4425;DHT22;2225;53.568;13.266;2023-04-06T02:16:07;5.40;92.30
4425;DHT22;2225;53.568;13.266;2023-04-06T02:18:34;5.40;92.40
4425;DHT22;2225;53.568;13.266;2023-04-06T02:21:01;5.40;92.50
4425;DHT22;2225;53.568;13.266;2023-04-06T02:23:28;5.40;92.50
4425;DHT22;2225;53.568;13.266;2023-04-06T02:25:56;5.30;92.50
4425;DHT22;2225;53.568;13.266;2023-04-06T02:28:23;5.30;92.50
4425;DHT22;2225;53.568;13.266;2023-04-06T02:30:50;5.30;92.50
4425;DHT22;2225;53.568;13.266;2023-04-06T02:33:18;5.20;92.60
4425;DHT22;2225;53.568;13.266;2023-04-06T02:35:46;5.20;92.40
4425;DHT22;2225;53.568;13.266;2023-04-06T02:38:13;5.20;92.40
4425;DHT22;2225;53.568;13.266;2023-04-06T02:40:40;5.10;92.50
4425;DHT22;2225;53.568;13.266;2023-04-06T02:43:22;5.10;92.40
4425;DHT22;2225;53.568;13.266;2023-04-06T02:45:54;5.10;92.50
4425;DHT22;2225;53.568;13.266;2023-04-06T02:48:23;5.00;92.50
4425;DHT22;2225;53.568;13.266;2023-04-06T02:50:51;5.00;92.40
4425;DHT22;2225;53.568;13.266;2023-04-06T02:53:18;4.90;92.30
4425;DHT22;2225;53.568;13.266;2023-04-06T02:55:45;4.90;92.30
4425;DHT22;2225;53.568;13.266;2023-04-06T02:58:12;4.90;92.40
4425;DHT22;2225;53.568;13.266;2023-04-06T03:00:46;4.90;92.50
4425;DHT22;2225;53.568;13.266;2023-04-06T03:03:13;4.80;92.40
4425;DHT22;2225;53.568;13.266;2023-04-06T03:05:42;4.80;92.40
4425;DHT22;2225;53.568;13.266;2023-04-06T03:08:10;4.70;92.40
4425;DHT22;2225;53.568;13.266;2023-04-06T03:10:41;4.70;92.50
4425;DHT22;2225;53.568;13.266;2023-04-06T03:13:08;4.70;92.40
4425;DHT22;2225;53.568;13.266;2023-04-06T03:15:47;4.70;92.40
4425;DHT22;2225;53.568;13.266;2023-04-06T03:18:22;4.60;92.50
4425;DHT22;2225;53.568;13.266;2023-04-06T03:20:51;4.60;92.60
4425;DHT22;2225;53.568;13.266;2023-04-06T03:23:22;4.60;92.50
4425;DHT22;2225;53.568;13.266;2023-04-06T03:25:54;4.60;92.60
4425;DHT22;2225;53.568;13.266;2023-04-06T03:28:21;4.50;92.70
4425;DHT22;2225;53.568;13.266;2023-04-06T03:31:02;4.50;92.90
4425;DHT22;2225;53.568;13.266;2023-04-06T03:33:42;4.50;92.90
4425;DHT22;2225;53.568;13.266;2023-04-06T03:36:14;4.50;92.90
4425;DHT22;2225;53.568;13.266;2023-04-06T03:38:42;4.40;92.90
4425;DHT22;2225;53.568;13.266;2023-04-06T03:41:12;4.40;92.80
4425;DHT22;2225;53.568;13.266;2023-04-06T03:43:42;4.40;92.90
4425;DHT22;2225;53.568;13.266;2023-04-06T03:46:09;4.40;92.90
4425;DHT22;2225;53.568;13.266;2023-04-06T03:48:36;4.40;93.00
4425;DHT22;2225;53.568;13.266;2023-04-06T03:51:05;4.40;93.10
4425;DHT22;2225;53.568;13.266;2023-04-06T03:53:32;4.40;93.10
4425;DHT22;2225;53.568;13.266;2023-04-06T03:55:59;4.30;93.10
4425;DHT22;2225;53.568;13.266;2023-04-06T03:58:30;4.30;93.00
4425;DHT22;2225;53.568;13.266;2023-04-06T04:00:57;4.30;93.00
4425;DHT22;2225;53.568;13.266;2023-04-06T04:03:24;4.30;93.00
4425;DHT22;2225;53.568;13.266;2023-04-06T04:05:54;4.30;92.90
4425;DHT22;2225;53.568;13.266;2023-04-06T04:08:24;4.30;93.00
4425;DHT22;2225;53.568;13.266;2023-04-06T04:10:51;4.30;93.00
4425;DHT22;2225;53.568;13.266;2023-04-06T04:13:18;4.30;93.00
4425;DHT22;2225;53.568;13.266;2023-04-06T04:15:48;4.20;92.90
4425;DHT22;2225;53.568;13.266;2023-04-06T04:18:15;4.20;93.00
4425;DHT22;2225;53.568;13.266;2023-04-06T04:20:42;4.20;93.10
4425;DHT22;2225;53.568;13.266;2023-04-06T04:23:10;4.20;93.20
4425;DHT22;2225;53.568;13.266;2023-04-06T04:25:37;4.20;93.20
4425;DHT22;2225;53.568;13.266;2023-04-06T04:28:05;4.10;93.20
4425;DHT22;2225;53.568;13.266;2023-04-06T04:30:32;4.20;93.20
4425;DHT22;2225;53.568;13.266;2023-04-06T04:32:59;4.10;93.20
4425;DHT22;2225;53.568;13.266;2023-04-06T04:35:27;4.10;93.40
4425;DHT22;2225;53.568;13.266;2023-04-06T04:37:56;4.10;93.40
4425;DHT22;2225;53.568;13.266;2023-04-06T04:40:23;4.10;93.50
4425;DHT22;2225;53.568;13.266;2023-04-06T04:42:55;4.10;93.40
4425;DHT22;2225;53.568;13.266;2023-04-06T04:45:30;4.10;93.40
4425;DHT22;2225;53.568;13.266;2023-04-06T04:48:01;4.10;93.80
4425;DHT22;2225;53.568;13.266;2023-04-06T04:50:37;4.10;93.50
4425;DHT22;2225;53.568;13.266;2023-04-06T04:53:04;4.10;93.50
4425;DHT22;2225;53.568;13.266;2023-04-06T04:55:32;4.10;93.50
4425;DHT22;2225;53.568;13.266;2023-04-06T04:58:00;4.20;93.60
4425;DHT22;2225;53.568;13.266;2023-04-06T05:00:43;4.20;93.60
4425;DHT22;2225;53.568;13.266;2023-04-06T05:03:17;4.20;93.60
4425;DHT22;2225;53.568;13.266;2023-04-06T05:05:54;4.20;93.70
4425;DHT22;2225;53.568;13.266;2023-04-06T05:08:24;4.30;93.70
4425;DHT22;2225;53.568;13.266;2023-04-06T05:10:52;4.30;93.70
4425;DHT22;2225;53.568;13.266;2023-04-06T05:13:19;4.30;93.70
4425;DHT22;2225;53.568;13.266;2023-04-06T05:15:48;4.40;93.70
4425;DHT22;2225;53.568;13.266;2023-04-06T05:18:22;4.40;93.70
4425;DHT22;2225;53.568;13.266;2023-04-06T05:20:49;4.50;93.70
4425;DHT22;2225;53.568;13.266;2023-04-06T05:23:21;4.50;93.70
4425;DHT22;2225;53.568;13.266;2023-04-06T05:25:50;4.60;93.60
4425;DHT22;2225;53.568;13.266;2023-04-06T05:28:20;4.60;93.60
4425;DHT22;2225;53.568;13.266;2023-04-06T05:30:47;4.70;93.70
4425;DHT22;2225;53.568;13.266;2023-04-06T05:33:15;4.70;93.70
4425;DHT22;2225;53.568;13.266;2023-04-06T05:35:55;4.70;93.70
4425;DHT22;2225;53.568;13.266;2023-04-06T05:38:22;4.80;93.80
4425;DHT22;2225;53.568;13.266;2023-04-06T05:40:52;4.80;93.70
4425;DHT22;2225;53.568;13.266;2023-04-06T05:43:22;4.90;93.80
4425;DHT22;2225;53.568;13.266;2023-04-06T05:45:53;4.90;93.70
4425;DHT22;2225;53.568;13.266;2023-04-06T05:48:20;5.00;94.00
4425;DHT22;2225;53.568;13.266;2023-04-06T05:50:49;5.00;93.80
4425;DHT22;2225;53.568;13.266;2023-04-06T05:53:25;5.10;93.90
4425;DHT22;2225;53.568;13.266;2023-04-06T05:55:56;5.10;93.80
4425;DHT22;2225;53.568;13.266;2023-04-06T05:58:23;5.20;93.90
4425;DHT22;2225;53.568;13.266;2023-04-06T06:00:59;5.20;93.90
4425;DHT22;2225;53.568;13.266;2023-04-06T06:03:35;5.30;94.00
4425;DHT22;2225;53.568;13.266;2023-04-06T06:06:03;5.40;93.90
4425;DHT22;2225;53.568;13.266;2023-04-06T06:08:56;5.40;93.90
4425;DHT22;2225;53.568;13.266;2023-04-06T06:11:28;5.50;93.90
4425;DHT22;2225;53.568;13.266;2023-04-06T06:13:56;5.50;93.80
4425;DHT22;2225;53.568;13.266;2023-04-06T06:16:24;5.60;93.80
4425;DHT22;2225;53.568;13.266;2023-04-06T06:18:51;5.70;93.70
4425;DHT22;2225;53.568;13.266;2023-04-06T06:21:18;5.80;93.70
4425;DHT22;2225;53.568;13.266;2023-04-06T06:23:45;5.80;93.40
4425;DHT22;2225;53.568;13.266;2023-04-06T06:26:18;5.90;93.10
4425;DHT22;2225;53.568;13.266;2023-04-06T06:28:45;6.00;92.90
4425;DHT22;2225;53.568;13.266;2023-04-06T06:31:13;6.00;92.60
4425;DHT22;2225;53.568;13.266;2023-04-06T06:33:42;6.10;92.40
4425;DHT22;2225;53.568;13.266;2023-04-06T06:36:09;6.20;92.50
4425;DHT22;2225;53.568;13.266;2023-04-06T06:38:37;6.30;92.10
4425;DHT22;2225;53.568;13.266;2023-04-06T06:41:05;6.40;92.20
4425;DHT22;2225;53.568;13.266;2023-04-06T06:43:34;6.50;92.20
4425;DHT22;2225;53.568;13.266;2023-04-06T06:46:06;6.60;91.80
4425;DHT22;2225;53.568;13.266;2023-04-06T06:48:33;6.70;91.20
4425;DHT22;2225;53.568;13.266;2023-04-06T06:51:00;6.70;91.40
4425;DHT22;2225;53.568;13.266;2023-04-06T06:53:27;6.90;91.50
4425;DHT22;2225;53.568;13.266;2023-04-06T06:55:55;7.00;91.50
4425;DHT22;2225;53.568;13.266;2023-04-06T06:58:22;7.10;91.10
4425;DHT22;2225;53.568;13.266;2023-04-06T07:00:49;7.20;91.10
4425;DHT22;2225;53.568;13.266;2023-04-06T07:03:16;7.30;90.90
4425;DHT22;2225;53.568;13.266;2023-04-06T07:05:47;7.40;91.00
4425;DHT22;2225;53.568;13.266;2023-04-06T07:08:21;7.40;90.90
4425;DHT22;2225;53.568;13.266;2023-04-06T07:10:50;7.60;90.90
4425;DHT22;2225;53.568;13.266;2023-04-06T07:13:19;7.60;90.30
4425;DHT22;2225;53.568;13.266;2023-04-06T07:15:52;7.80;90.40
4425;DHT22;2225;53.568;13.266;2023-04-06T07:18:20;7.90;90.20
4425;DHT22;2225;53.568;13.266;2023-04-06T07:20:47;7.90;90.00
4425;DHT22;2225;53.568;13.266;2023-04-06T07:23:15;8.00;89.50
4425;DHT22;2225;53.568;13.266;2023-04-06T07:25:42;8.10;89.50
4425;DHT22;2225;53.568;13.266;2023-04-06T07:28:09;8.20;89.20
4425;DHT22;2225;53.568;13.266;2023-04-06T07:30:37;8.30;88.50
4425;DHT22;2225;53.568;13.266;2023-04-06T07:33:05;8.40;88.90
4425;DHT22;2225;53.568;13.266;2023-04-06T07:35:34;8.40;87.90
4425;DHT22;2225;53.568;13.266;2023-04-06T07:38:04;8.50;88.10
4425;DHT22;2225;53.568;13.266;2023-04-06T07:40:32;8.60;87.60
4425;DHT22;2225;53.568;13.266;2023-04-06T07:42:59;8.70;87.90
4425;DHT22;2225;53.568;13.266;2023-04-06T07:45:26;8.80;88.00
4425;DHT22;2225;53.568;13.266;2023-04-06T07:47:54;8.90;87.70
4425;DHT22;2225;53.568;13.266;2023-04-06T07:50:23;8.90;86.80
4425;DHT22;2225;53.568;13.266;2023-04-06T07:52:52;9.00;87.10
4425;DHT22;2225;53.568;13.266;2023-04-06T07:55:19;9.10;87.20
4425;DHT22;2225;53.568;13.266;2023-04-06T07:57:46;9.20;85.50
4425;DHT22;2225;53.568;13.266;2023-04-06T08:00:13;9.30;85.00
4425;DHT22;2225;53.568;13.266;2023-04-06T08:02:40;9.40;84.50
4425;DHT22;2225;53.568;13.266;2023-04-06T08:05:08;9.50;83.70
4425;DHT22;2225;53.568;13.266;2023-04-06T08:07:35;9.50;82.60
4425;DHT22;2225;53.568;13.266;2023-04-06T08:10:03;9.60;83.50
4425;DHT22;2225;53.568;13.266;2023-04-06T08:12:33;9.70;82.10
4425;DHT22;2225;53.568;13.266;2023-04-06T08:15:00;9.80;82.00
4425;DHT22;2225;53.568;13.266;2023-04-06T08:17:29;9.90;80.70
4425;DHT22;2225;53.568;13.266;2023-04-06T08:19:57;10.00;80.90
4425;DHT22;2225;53.568;13.266;2023-04-06T08:22:24;10.00;80.40
4425;DHT22;2225;53.568;13.266;2023-04-06T08:24:51;10.10;79.50
4425;DHT22;2225;53.568;13.266;2023-04-06T08:27:18;10.20;80.20
4425;DHT22;2225;53.568;13.266;2023-04-06T08:29:45;10.30;77.30
4425;DHT22;2225;53.568;13.266;2023-04-06T08:32:12;10.30;76.30
4425;DHT22;2225;53.568;13.266;2023-04-06T08:34:39;10.40;77.10
4425;DHT22;2225;53.568;13.266;2023-04-06T08:37:06;10.50;76.70
4425;DHT22;2225;53.568;13.266;2023-04-06T08:39:33;10.60;76.70
4425;DHT22;2225;53.568;13.266;2023-04-06T08:42:01;10.60;75.70
4425;DHT22;2225;53.568;13.266;2023-04-06T08:44:31;10.70;74.50
4425;DHT22;2225;53.568;13.266;2023-04-06T08:46:59;10.80;74.20
4425;DHT22;2225;53.568;13.266;2023-04-06T08:49:27;10.90;74.00
4425;DHT22;2225;53.568;13.266;2023-04-06T08:51:55;11.00;74.10
4425;DHT22;2225;53.568;13.266;2023-04-06T08:54:22;11.00;74.00
4425;DHT22;2225;53.568;13.266;2023-04-06T08:56:49;11.10;68.80
4425;DHT22;2225;53.568;13.266;2023-04-06T08:59:16;11.10;69.10
4425;DHT22;2225;53.568;13.266;2023-04-06T09:01:44;11.20;70.40
4425;DHT22;2225;53.568;13.266;2023-04-06T09:04:12;11.30;72.40
4425;DHT22;2225;53.568;13.266;2023-04-06T09:06:40;11.40;71.00
4425;DHT22;2225;53.568;13.266;2023-04-06T09:09:07;11.50;71.50
4425;DHT22;2225;53.568;13.266;2023-04-06T09:11:46;11.60;72.00
4425;DHT22;2225;53.568;13.266;2023-04-06T09:14:14;11.70;70.40
4425;DHT22;2225;53.568;13.266;2023-04-06T09:16:43;11.70;68.70
4425;DHT22;2225;53.568;13.266;2023-04-06T09:19:12;11.80;67.80
4425;DHT22;2225;53.568;13.266;2023-04-06T09:21:39;11.90;66.90
4425;DHT22;2225;53.568;13.266;2023-04-06T09:24:07;11.90;67.10
4425;DHT22;2225;53.568;13.266;2023-04-06T09:26:46;12.00;66.60
4425;DHT22;2225;53.568;13.266;2023-04-06T09:29:26;12.10;66.10
4425;DHT22;2225;53.568;13.266;2023-04-06T09:32:05;12.10;65.50
4425;DHT22;2225;53.568;13.266;2023-04-06T09:34:33;12.20;67.10
4425;DHT22;2225;53.568;13.266;2023-04-06T09:37:00;12.30;67.70
4425;DHT22;2225;53.568;13.266;2023-04-06T09:39:27;12.40;62.40
4425;DHT22;2225;53.568;13.266;2023-04-06T09:41:54;12.40;63.30
4425;DHT22;2225;53.568;13.266;2023-04-06T09:44:22;12.50;64.40
4425;DHT22;2225;53.568;13.266;2023-04-06T09:46:53;12.50;63.90
4425;DHT22;2225;53.568;13.266;2023-04-06T09:49:31;12.60;64.90
4425;DHT22;2225;53.568;13.266;2023-04-06T09:52:03;12.70;61.00
4425;DHT22;2225;53.568;13.266;2023-04-06T09:54:31;12.70;60.40
4425;DHT22;2225;53.568;13.266;2023-04-06T09:57:07;12.70;60.70
4425;DHT22;2225;53.568;13.266;2023-04-06T09:59:44;12.80;59.30
4425;DHT22;2225;53.568;13.266;2023-04-06T10:02:24;12.80;61.00
4425;DHT22;2225;53.568;13.266;2023-04-06T10:05:00;12.90;61.60
4425;DHT22;2225;53.568;13.266;2023-04-06T10:07:30;13.10;60.40
4425;DHT22;2225;53.568;13.266;2023-04-06T10:09:59;13.10;58.10
4425;DHT22;2225;53.568;13.266;2023-04-06T10:12:26;13.20;59.10
4425;DHT22;2225;53.568;13.266;2023-04-06T10:14:54;13.20;58.30
4425;DHT22;2225;53.568;13.266;2023-04-06T10:17:22;13.20;57.50
4425;DHT22;2225;53.568;13.266;2023-04-06T10:20:04;13.30;57.60
4425;DHT22;2225;53.568;13.266;2023-04-06T10:22:50;13.30;55.30
4425;DHT22;2225;53.568;13.266;2023-04-06T10:25:27;13.30;54.40
4425;DHT22;2225;53.568;13.266;2023-04-06T10:28:08;13.40;55.70
4425;DHT22;2225;53.568;13.266;2023-04-06T10:30:41;13.40;52.80
4425;DHT22;2225;53.568;13.266;2023-04-06T10:33:14;13.40;52.70
4425;DHT22;2225;53.568;13.266;2023-04-06T10:35:41;13.40;53.10
4425;DHT22;2225;53.568;13.266;2023-04-06T10:38:08;13.40;54.00
4425;DHT22;2225;53.568;13.266;2023-04-06T10:40:39;13.40;55.20
4425;DHT22;2225;53.568;13.266;2023-04-06T10:43:21;13.50;53.80
4425;DHT22;2225;53.568;13.266;2023-04-06T10:45:56;13.60;55.30
4425;DHT22;2225;53.568;13.266;2023-04-06T10:48:24;13.60;55.20
4425;DHT22;2225;53.568;13.266;2023-04-06T10:50:52;13.70;55.00
4425;DHT22;2225;53.568;13.266;2023-04-06T10:53:25;13.70;55.30
4425;DHT22;2225;53.568;13.266;2023-04-06T10:55:57;13.80;53.80
4425;DHT22;2225;53.568;13.266;2023-04-06T10:58:25;13.90;52.80
4425;DHT22;2225;53.568;13.266;2023-04-06T11:00:53;13.90;51.60
4425;DHT22;2225;53.568;13.266;2023-04-06T11:03:21;14.00;51.70
4425;DHT22;2225;53.568;13.266;2023-04-06T11:05:50;14.00;51.40
4425;DHT22;2225;53.568;13.266;2023-04-06T11:08:29;14.00;50.70
4425;DHT22;2225;53.568;13.266;2023-04-06T11:11:11;14.10;51.70
4425;DHT22;2225;53.568;13.266;2023-04-06T11:13:50;14.10;50.70
4425;DHT22;2225;53.568;13.266;2023-04-06T11:16:26;14.10;50.30
4425;DHT22;2225;53.568;13.266;2023-04-06T11:19:03;14.10;47.20
4425;DHT22;2225;53.568;13.266;2023-04-06T11:21:41;14.20;49.10
4425;DHT22;2225;53.568;13.266;2023-04-06T11:26:52;14.40;51.30
4425;DHT22;2225;53.568;13.266;2023-04-06T11:29:22;14.40;48.60
4425;DHT22;2225;53.568;13.266;2023-04-06T11:32:02;14.50;50.50
4425;DHT22;2225;53.568;13.266;2023-04-06T11:34:32;14.50;48.60
4425;DHT22;2225;53.568;13.266;2023-04-06T11:37:13;14.50;47.60
4425;DHT22;2225;53.568;13.266;2023-04-06T11:39:50;14.50;48.50
4425;DHT22;2225;53.568;13.266;2023-04-06T11:42:28;14.50;48.50
4425;DHT22;2225;53.568;13.266;2023-04-06T11:44:57;14.60;48.40
4425;DHT22;2225;53.568;13.266;2023-04-06T11:47:29;14.60;48.00
4425;DHT22;2225;53.568;13.266;2023-04-06T11:50:11;14.70;48.30
4425;DHT22;2225;53.568;13.266;2023-04-06T11:52:41;14.70;48.90
4425;DHT22;2225;53.568;13.266;2023-04-06T11:55:16;14.70;48.70
4425;DHT22;2225;53.568;13.266;2023-04-06T11:57:44;14.70;49.50
4425;DHT22;2225;53.568;13.266;2023-04-06T12:00:12;14.70;49.60
4425;DHT22;2225;53.568;13.266;2023-04-06T12:02:39;14.80;48.30
4425;DHT22;2225;53.568;13.266;2023-04-06T12:05:07;14.70;48.10
4425;DHT22;2225;53.568;13.266;2023-04-06T12:07:34;14.60;48.10
4425;DHT22;2225;53.568;13.266;2023-04-06T12:10:03;14.70;49.60
4425;DHT22;2225;53.568;13.266;2023-04-06T12:12:30;14.70;48.90
4425;DHT22;2225;53.568;13.266;2023-04-06T12:14:57;14.70;48.10
4425;DHT22;2225;53.568;13.266;2023-04-06T12:17:25;14.70;48.30
4425;DHT22;2225;53.568;13.266;2023-04-06T12:19:52;14.70;49.00
4425;DHT22;2225;53.568;13.266;2023-04-06T12:22:19;14.70;48.30
4425;DHT22;2225;53.568;13.266;2023-04-06T12:24:46;14.70;48.30
4425;DHT22;2225;53.568;13.266;2023-04-06T12:27:13;14.70;48.10
4425;DHT22;2225;53.568;13.266;2023-04-06T12:29:41;14.70;48.90
4425;DHT22;2225;53.568;13.266;2023-04-06T12:32:08;14.70;49.20
4425;DHT22;2225;53.568;13.266;2023-04-06T12:34:37;14.70;49.40
4425;DHT22;2225;53.568;13.266;2023-04-06T12:37:04;14.80;48.70
4425;DHT22;2225;53.568;13.266;2023-04-06T12:39:31;14.80;49.40
4425;DHT22;2225;53.568;13.266;2023-04-06T12:41:58;14.80;49.60
4425;DHT22;2225;53.568;13.266;2023-04-06T12:44:25;14.80;49.90
4425;DHT22;2225;53.568;13.266;2023-04-06T12:46:52;14.90;49.20
4425;DHT22;2225;53.568;13.266;2023-04-06T12:49:19;14.90;48.90
4425;DHT22;2225;53.568;13.266;2023-04-06T12:51:46;14.90;48.80
4425;DHT22;2225;53.568;13.266;2023-04-06T12:54:14;15.10;49.40
4425;DHT22;2225;53.568;13.266;2023-04-06T12:56:41;15.10;48.50
4425;DHT22;2225;53.568;13.266;2023-04-06T12:59:08;15.20;48.60
4425;DHT22;2225;53.568;13.266;2023-04-06T13:01:34;15.30;49.30
4425;DHT22;2225;53.568;13.266;2023-04-06T13:04:01;15.30;48.10
4425;DHT22;2225;53.568;13.266;2023-04-06T13:06:28;15.30;47.70
4425;DHT22;2225;53.568;13.266;2023-04-06T13:08:56;15.30;48.60
4425;DHT22;2225;53.568;13.266;2023-04-06T13:11:23;15.30;48.80
4425;DHT22;2225;53.568;13.266;2023-04-06T13:13:54;15.30;48.50
4425;DHT22;2225;53.568;13.266;2023-04-06T13:16:21;15.30;49.20
4425;DHT22;2225;53.568;13.266;2023-04-06T13:18:48;15.30;48.10
4425;DHT22;2225;53.568;13.266;2023-04-06T13:21:16;15.30;48.60
4425;DHT22;2225;53.568;13.266;2023-04-06T13:23:44;15.20;47.20
4425;DHT22;2225;53.568;13.266;2023-04-06T13:26:11;15.20;48.60
4425;DHT22;2225;53.568;13.266;2023-04-06T13:28:39;15.20;48.40
4425;DHT22;2225;53.568;13.266;2023-04-06T13:31:07;15.20;47.90
4425;DHT22;2225;53.568;13.266;2023-04-06T13:33:35;15.20;47.60
4425;DHT22;2225;53.568;13.266;2023-04-06T13:36:02;15.20;48.00
4425;DHT22;2225;53.568;13.266;2023-04-06T13:38:30;15.20;48.70
4425;DHT22;2225;53.568;13.266;2023-04-06T13:40:57;15.20;48.30
4425;DHT22;2225;53.568;13.266;2023-04-06T13:43:24;15.20;48.10
4425;DHT22;2225;53.568;13.266;2023-04-06T13:45:54;15.20;48.00
4425;DHT22;2225;53.568;13.266;2023-04-06T13:48:22;15.20;48.00
4425;DHT22;2225;53.568;13.266;2023-04-06T13:50:49;15.10;47.60
4425;DHT22;2225;53.568;13.266;2023-04-06T13:53:16;15.00;47.60
4425;DHT22;2225;53.568;13.266;2023-04-06T13:55:43;15.00;47.50
4425;DHT22;2225;53.568;13.266;2023-04-06T13:58:18;14.90;48.00
4425;DHT22;2225;53.568;13.266;2023-04-06T14:00:45;15.00;47.10
4425;DHT22;2225;53.568;13.266;2023-04-06T14:03:12;15.00;47.30
4425;DHT22;2225;53.568;13.266;2023-04-06T14:05:40;15.00;48.00
4425;DHT22;2225;53.568;13.266;2023-04-06T14:08:07;15.10;48.40
4425;DHT22;2225;53.568;13.266;2023-04-06T14:10:41;15.20;48.80
4425;DHT22;2225;53.568;13.266;2023-04-06T14:13:09;15.40;48.40
4425;DHT22;2225;53.568;13.266;2023-04-06T14:15:36;15.40;48.30
4425;DHT22;2225;53.568;13.266;2023-04-06T14:18:03;15.40;48.70
4425;DHT22;2225;53.568;13.266;2023-04-06T14:20:33;15.40;49.10
4425;DHT22;2225;53.568;13.266;2023-04-06T14:23:01;15.30;49.20
4425;DHT22;2225;53.568;13.266;2023-04-06T14:25:28;15.40;49.10
4425;DHT22;2225;53.568;13.266;2023-04-06T14:27:57;15.40;49.20
4425;DHT22;2225;53.568;13.266;2023-04-06T14:30:24;15.40;48.70
4425;DHT22;2225;53.568;13.266;2023-04-06T14:32:51;15.40;49.00
4425;DHT22;2225;53.568;13.266;2023-04-06T14:35:19;15.50;48.90
4425;DHT22;2225;53.568;13.266;2023-04-06T14:37:45;15.40;48.60
4425;DHT22;2225;53.568;13.266;2023-04-06T14:40:13;15.40;48.80
4425;DHT22;2225;53.568;13.266;2023-04-06T14:42:40;15.40;48.10
4425;DHT22;2225;53.568;13.266;2023-04-06T14:45:07;15.40;48.20
4425;DHT22;2225;53.568;13.266;2023-04-06T14:47:34;15.30;48.60
4425;DHT22;2225;53.568;13.266;2023-04-06T14:50:01;15.30;48.80
4425;DHT22;2225;53.568;13.266;2023-04-06T14:52:28;15.30;48.80
4425;DHT22;2225;53.568;13.266;2023-04-06T14:54:58;15.20;48.60
4425;DHT22;2225;53.568;13.266;2023-04-06T14:57:25;15.30;48.70
4425;DHT22;2225;53.568;13.266;2023-04-06T14:59:55;15.30;48.80
4425;DHT22;2225;53.568;13.266;2023-04-06T15:02:22;15.30;48.40
4425;DHT22;2225;53.568;13.266;2023-04-06T15:04:49;15.20;48.20
4425;DHT22;2225;53.568;13.266;2023-04-06T15:07:19;15.20;49.00
4425;DHT22;2225;53.568;13.266;2023-04-06T15:09:46;15.20;48.60
4425;DHT22;2225;53.568;13.266;2023-04-06T15:12:13;15.20;48.90
4425;DHT22;2225;53.568;13.266;2023-04-06T15:14:40;15.20;49.60
4425;DHT22;2225;53.568;13.266;2023-04-06T15:17:07;15.20;49.10
4425;DHT22;2225;53.568;13.266;2023-04-06T15:19:34;15.20;49.30
4425;DHT22;2225;53.568;13.266;2023-04-06T15:22:01;15.20;48.60
4425;DHT22;2225;53.568;13.266;2023-04-06T15:24:27;15.20;48.90
4425;DHT22;2225;53.568;13.266;2023-04-06T15:26:54;15.20;49.90
4425;DHT22;2225;53.568;13.266;2023-04-06T15:29:22;15.20;49.60
4425;DHT22;2225;53.568;13.266;2023-04-06T15:31:49;15.10;49.60
4425;DHT22;2225;53.568;13.266;2023-04-06T15:34:16;15.10;49.80
4425;DHT22;2225;53.568;13.266;2023-04-06T15:36:43;15.10;49.20
4425;DHT22;2225;53.568;13.266;2023-04-06T15:39:12;15.10;49.60
4425;DHT22;2225;53.568;13.266;2023-04-06T15:41:39;15.10;49.30
4425;DHT22;2225;53.568;13.266;2023-04-06T15:44:06;15.10;50.00
4425;DHT22;2225;53.568;13.266;2023-04-06T15:46:33;15.10;49.50
4425;DHT22;2225;53.568;13.266;2023-04-06T15:49:00;15.00;49.60
4425;DHT22;2225;53.568;13.266;2023-04-06T15:51:27;15.00;50.30
4425;DHT22;2225;53.568;13.266;2023-04-06T15:53:55;15.00;49.90
4425;DHT22;2225;53.568;13.266;2023-04-06T15:56:24;15.00;49.70
4425;DHT22;2225;53.568;13.266;2023-04-06T15:58:50;15.00;50.00
4425;DHT22;2225;53.568;13.266;2023-04-06T16:01:18;15.00;50.20
4425;DHT22;2225;53.568;13.266;2023-04-06T16:03:45;14.90;53.30
4425;DHT22;2225;53.568;13.266;2023-04-06T16:06:12;15.00;51.70
4425;DHT22;2225;53.568;13.266;2023-04-06T16:08:39;14.90;50.40
4425;DHT22;2225;53.568;13.266;2023-04-06T16:11:07;14.90;49.40